08NC weather

Whiteheart Farm Airport
Lewisville, North Carolina, United States

Public forecast

Using degrees Fahrenheit for public forecast. Weather courtesy of forecast.io.

METAR (pilot weather report)

Closest report is Smith Reynolds Airport, 12.5 nm (23.1 km) ENE. Retrieved 2019/07/16 06:54 UTC (48 minutes ago):

KINT 160654Z AUTO 00000KT 10SM CLR 25/21 A3012 RMK AO2 SLP185 T02500211

TAF (pilot weather forecast)

Closest forecast is Smith Reynolds Airport, 12.5 nm (23.1 km) ENE. Retrieved 2019/07/16 06:48 UTC (54 minutes ago):

TAF KINT 160540Z 1606/1706 VRB03KT P6SM BKN220 PROB30 1619/1623 VRB15G30KT TS SCT060CB BKN120 BKN220